Norse Mersey — IBEN — position and weather

sailwx.info

Track history (hours):
 
Tides and Currents Weather Stations Pressure Air Temp Water Temp Dewpoint Dewpoint Depression Visibility Wind Speed Wind Dir Waves Ship Positions

Norse Mersey

Operator: Norse Merchant Ferries

Last reported at 2019-Sep-16 23:12 UTC. Time now 2019-Sep-17 08:28 UTC.
Position N 40°26' E 014°05'.

Length 175 m; draft 5.6 m.

Type: Ship (hazmat cat A). MMSI: 247026000.

Date/timePositionNaut miles runAvg speedWind from/ knotsBaromVisibWave heightAir tempDewpointWater temp
2019-Sep-16 23:12N 40°26' E 014°05'615.2
2019-Sep-16 22:48N 40°28' E 014°13'415.1
2019-Sep-16 22:30N 40°29' E 014°18'815.2
2019-Sep-16 22:00N 40°32' E 014°28'815.1
2019-Sep-16 21:27N 40°36' E 014°38'1 0.0
2019-Sep-15 14:47N 40°36' E 014°39'415.9
2019-Sep-15 14:30N 40°34' E 014°34'815.6
2019-Sep-15 14:00N 40°30' E 014°25'815.5
2019-Sep-15 13:30N 40°27' E 014°15'915.1
2019-Sep-15 12:53N 40°22' E 014°05'615.4
2019-Sep-15 12:30N 40°20' E 013°58'22715.0
2019-Sep-14 21:23N 39°04' E 009°20'615.4
2019-Sep-14 21:00N 39°07' E 009°14'713.4
2019-Sep-14 20:30N 39°11' E 009°07'2 0.2
2019-Sep-14 12:22N 39°13' E 009°06'1 2.8
2019-Sep-14 12:01N 39°12' E 009°06'713.5
2019-Sep-14 11:31N 39°08' E 009°13'20915.1
2019-Sep-13 21:42N 40°14' E 013°30'315.4
2019-Sep-13 21:30N 40°15' E 013°34'815.4
2019-Sep-13 21:01N 40°18' E 013°43'815.4
2019-Sep-13 20:30N 40°21' E 013°53'815.5
2019-Sep-13 20:00N 40°23' E 014°02'815.5
2019-Sep-13 19:31N 40°27' E 014°11'815.5
2019-Sep-13 18:59N 40°30' E 014°21'715.5
2019-Sep-13 18:30N 40°33' E 014°30'815.5
2019-Sep-13 18:00N 40°36' E 014°40'1 0.1
2019-Sep-13 09:30N 40°37' E 014°39'815.0
2019-Sep-13 09:00N 40°34' E 014°30'714.9
2019-Sep-13 08:30N 40°32' E 014°21'1014.4
2019-Sep-13 07:49N 40°32' E 014°07'515.3
2019-Sep-13 07:30N 40°34' E 014°02'815.0
2019-Sep-13 07:00N 40°38' E 013°54'714.9
2019-Sep-13 06:30N 40°42' E 013°46'815.1
2019-Sep-13 05:59N 40°47' E 013°38'715.0
2019-Sep-13 05:30N 40°52' E 013°30'714.9
2019-Sep-13 05:00N 40°56' E 013°23'814.9
2019-Sep-13 04:30N 41°01' E 013°15'16314.9
2019-Sep-12 17:31N 42°50' E 010°32'015.7
2019-Sep-12 17:30N 42°50' E 010°32'815.8
2019-Sep-12 17:00N 42°58' E 010°27'815.5
2019-Sep-12 16:30N 43°05' E 010°23'815.4
2019-Sep-12 16:00N 43°12' E 010°19'815.7
2019-Sep-12 15:30N 43°19' E 010°16'815.7
2019-Sep-12 15:00N 43°27' E 010°12'611.0
2019-Sep-12 14:30N 43°32' E 010°15'3 6.6
2019-Sep-12 14:01N 43°34' E 010°18'1 1.5
2019-Sep-12 13:28N 43°35' E 010°19'0 0.0
2019-Sep-12 12:58N 43°35' E 010°19'0 0.0
2019-Sep-12 12:28N 43°35' E 010°19'0 0.0
2019-Sep-12 11:58N 43°35' E 010°19'0 0.0
2019-Sep-12 11:28N 43°35' E 010°19'0 0.0
2019-Sep-12 10:58N 43°35' E 010°19'0 0.0
2019-Sep-12 10:28N 43°35' E 010°19'0 0.0
2019-Sep-12 09:58N 43°35' E 010°19'0 0.0
2019-Sep-12 09:28N 43°35' E 010°19'0 0.0
2019-Sep-12 08:58N 43°35' E 010°19'0 0.0
2019-Sep-12 08:28N 43°35' E 010°19'0 0.0
2019-Sep-12 07:59N 43°35' E 010°19'2 3.8
2019-Sep-12 07:30N 43°33' E 010°18'4 8.1
2019-Sep-12 07:00N 43°30' E 010°14'815.2
2019-Sep-12 06:30N 43°23' E 010°12'815.3
2019-Sep-12 06:00N 43°15' E 010°08'715.1
2019-Sep-12 05:30N 43°08' E 010°06'714.9
2019-Sep-12 05:00N 43°01' E 010°03'714.8
2019-Sep-12 04:30N 42°54' E 010°01'815.1
2019-Sep-12 04:00N 42°46' E 009°59'815.2
2019-Sep-12 03:30N 42°39' E 009°56'1214.8
2019-Sep-12 02:43N 42°27' E 009°54'6414.1
2019-Sep-11 22:09N 41°23' E 009°46'214.5
2019-Sep-11 22:00N 41°21' E 009°45'815.2
2019-Sep-11 21:30N 41°13' E 009°44'35 1.8
2019-Sep-11 02:12N 41°49' E 009°48'416.1
2019-Sep-11 01:58N 41°52' E 009°48'5915.8
2019-Sep-10 22:14N 42°51' E 009°57'415.9
2019-Sep-10 22:00N 42°54' E 009°58'816.1
2019-Sep-10 21:31N 43°02' E 010°01'815.7
2019-Sep-10 21:00N 43°10' E 010°04'815.3
2019-Sep-10 20:30N 43°17' E 010°06'815.4
2019-Sep-10 20:00N 43°25' E 010°09'713.8
2019-Sep-10 19:30N 43°31' E 010°12'4 8.9
2019-Sep-10 19:00N 43°33' E 010°17'2 4.2
2019-Sep-10 18:28N 43°35' E 010°19'0 0.0
2019-Sep-10 17:58N 43°35' E 010°19'0 0.0
2019-Sep-10 17:28N 43°35' E 010°19'0 0.0
2019-Sep-10 16:58N 43°35' E 010°19'0 0.0
2019-Sep-10 16:28N 43°35' E 010°19'0 0.0
2019-Sep-10 15:58N 43°35' E 010°19'0 0.0
2019-Sep-10 15:28N 43°35' E 010°19'0 0.0
2019-Sep-10 14:58N 43°35' E 010°19'0 0.0
2019-Sep-10 14:28N 43°35' E 010°19'0 0.0
2019-Sep-10 13:58N 43°35' E 010°19'0 0.0
2019-Sep-10 13:28N 43°35' E 010°19'0 0.0
2019-Sep-10 12:58N 43°35' E 010°19'0 0.0
2019-Sep-10 12:28N 43°35' E 010°19'0 0.0
2019-Sep-10 11:58N 43°35' E 010°19'0 0.0
2019-Sep-10 11:28N 43°35' E 010°19'0 0.0
2019-Sep-10 10:58N 43°35' E 010°19'0 0.0
2019-Sep-10 10:28N 43°35' E 010°19'0 0.0
2019-Sep-10 09:58N 43°35' E 010°19'0 0.0
2019-Sep-10 09:28N 43°35' E 010°19'0 0.0
2019-Sep-10 08:58N 43°35' E 010°19'0 0.0
2019-Sep-10 08:28N 43°35' E 010°19'0 0.0
2019-Sep-10 07:58N 43°35' E 010°19'0 0.0
2019-Sep-10 07:28N 43°35' E 010°19'0 0.0
2019-Sep-10 06:58N 43°35' E 010°19'0 0.0
2019-Sep-10 06:28N 43°35' E 010°19'1 2.0
2019-Sep-10 06:00N 43°34' E 010°18'3 6.0
2019-Sep-10 05:30N 43°32' E 010°16'613.1
2019-Sep-10 05:00N 43°26' E 010°12'714.9
2019-Sep-10 04:30N 43°18' E 010°09'714.9
2019-Sep-10 04:00N 43°11' E 010°07'814.7
2019-Sep-10 03:29N 43°04' E 010°05'6814.3
2019-Sep-09 22:43N 41°56' E 009°50'413.9
2019-Sep-09 22:24N 41°52' E 009°49'170 5.8
2019-Sep-08 17:15N 39°03' E 009°20'313.3
2019-Sep-08 17:00N 39°05' E 009°16'712.9
2019-Sep-08 16:30N 39°09' E 009°09'4 0.6
2019-Sep-08 09:47N 39°12' E 009°06'1 3.5
2019-Sep-08 09:31N 39°12' E 009°06'5 9.9
2019-Sep-08 09:00N 39°08' E 009°11'713.6
2019-Sep-08 08:30N 39°05' E 009°19'24213.8
2019-Sep-07 15:01N 40°28' E 014°14'114.4
2019-Sep-07 14:57N 40°29' E 014°15'614.3
2019-Sep-07 14:31N 40°31' E 014°23'814.3
2019-Sep-07 13:59N 40°33' E 014°32'7 0.8
2019-Sep-07 04:34N 40°37' E 014°41'112.1
2019-Sep-07 04:27N 40°36' E 014°39'715.1
2019-Sep-07 04:00N 40°33' E 014°31'714.8
2019-Sep-07 03:30N 40°29' E 014°23'814.8
2019-Sep-07 03:00N 40°26' E 014°14'  
Track history (hours):
 
Tides and Currents Weather Stations Pressure Air Temp Water Temp Dewpoint Dewpoint Depression Visibility Wind Speed Wind Dir Waves Ship Positions

Norse Mersey

Operator: Norse Merchant Ferries

Last reported at 2019-Sep-16 23:12 UTC. Time now 2019-Sep-17 08:28 UTC.
Position N 40°26' E 014°05'.

Length 175 m; draft 5.6 m.

Type: Ship (hazmat cat A). MMSI: 247026000.

Date/timePositionNaut miles runAvg speedWind from/ knotsBaromVisibWave heightAir tempDewpointWater temp
2019-Sep-16 23:12N 40°26' E 014°05'615.2
2019-Sep-16 22:48N 40°28' E 014°13'415.1
2019-Sep-16 22:30N 40°29' E 014°18'815.2
2019-Sep-16 22:00N 40°32' E 014°28'815.1
2019-Sep-16 21:27N 40°36' E 014°38'1 0.0
2019-Sep-15 14:47N 40°36' E 014°39'415.9
2019-Sep-15 14:30N 40°34' E 014°34'815.6
2019-Sep-15 14:00N 40°30' E 014°25'815.5
2019-Sep-15 13:30N 40°27' E 014°15'915.1
2019-Sep-15 12:53N 40°22' E 014°05'615.4
2019-Sep-15 12:30N 40°20' E 013°58'22715.0
2019-Sep-14 21:23N 39°04' E 009°20'615.4
2019-Sep-14 21:00N 39°07' E 009°14'713.4
2019-Sep-14 20:30N 39°11' E 009°07'2 0.2
2019-Sep-14 12:22N 39°13' E 009°06'1 2.8
2019-Sep-14 12:01N 39°12' E 009°06'713.5
2019-Sep-14 11:31N 39°08' E 009°13'20915.1
2019-Sep-13 21:42N 40°14' E 013°30'315.4
2019-Sep-13 21:30N 40°15' E 013°34'815.4
2019-Sep-13 21:01N 40°18' E 013°43'815.4
2019-Sep-13 20:30N 40°21' E 013°53'815.5
2019-Sep-13 20:00N 40°23' E 014°02'815.5
2019-Sep-13 19:31N 40°27' E 014°11'815.5
2019-Sep-13 18:59N 40°30' E 014°21'715.5
2019-Sep-13 18:30N 40°33' E 014°30'815.5
2019-Sep-13 18:00N 40°36' E 014°40'1 0.1
2019-Sep-13 09:30N 40°37' E 014°39'815.0
2019-Sep-13 09:00N 40°34' E 014°30'714.9
2019-Sep-13 08:30N 40°32' E 014°21'1014.4
2019-Sep-13 07:49N 40°32' E 014°07'515.3
2019-Sep-13 07:30N 40°34' E 014°02'815.0
2019-Sep-13 07:00N 40°38' E 013°54'714.9
2019-Sep-13 06:30N 40°42' E 013°46'815.1
2019-Sep-13 05:59N 40°47' E 013°38'715.0
2019-Sep-13 05:30N 40°52' E 013°30'714.9
2019-Sep-13 05:00N 40°56' E 013°23'814.9
2019-Sep-13 04:30N 41°01' E 013°15'16314.9
2019-Sep-12 17:31N 42°50' E 010°32'015.7
2019-Sep-12 17:30N 42°50' E 010°32'815.8
2019-Sep-12 17:00N 42°58' E 010°27'815.5
2019-Sep-12 16:30N 43°05' E 010°23'815.4
2019-Sep-12 16:00N 43°12' E 010°19'815.7
2019-Sep-12 15:30N 43°19' E 010°16'815.7
2019-Sep-12 15:00N 43°27' E 010°12'611.0
2019-Sep-12 14:30N 43°32' E 010°15'3 6.6
2019-Sep-12 14:01N 43°34' E 010°18'1 1.5
2019-Sep-12 13:28N 43°35' E 010°19'0 0.0
2019-Sep-12 12:58N 43°35' E 010°19'0 0.0
2019-Sep-12 12:28N 43°35' E 010°19'0 0.0
2019-Sep-12 11:58N 43°35' E 010°19'0 0.0
2019-Sep-12 11:28N 43°35' E 010°19'0 0.0
2019-Sep-12 10:58N 43°35' E 010°19'0 0.0
2019-Sep-12 10:28N 43°35' E 010°19'0 0.0
2019-Sep-12 09:58N 43°35' E 010°19'0 0.0
2019-Sep-12 09:28N 43°35' E 010°19'0 0.0
2019-Sep-12 08:58N 43°35' E 010°19'0 0.0
2019-Sep-12 08:28N 43°35' E 010°19'0 0.0
2019-Sep-12 07:59N 43°35' E 010°19'2 3.8
2019-Sep-12 07:30N 43°33' E 010°18'4 8.1
2019-Sep-12 07:00N 43°30' E 010°14'815.2
2019-Sep-12 06:30N 43°23' E 010°12'815.3
2019-Sep-12 06:00N 43°15' E 010°08'715.1
2019-Sep-12 05:30N 43°08' E 010°06'714.9
2019-Sep-12 05:00N 43°01' E 010°03'714.8
2019-Sep-12 04:30N 42°54' E 010°01'815.1
2019-Sep-12 04:00N 42°46' E 009°59'815.2
2019-Sep-12 03:30N 42°39' E 009°56'1214.8
2019-Sep-12 02:43N 42°27' E 009°54'6414.1
2019-Sep-11 22:09N 41°23' E 009°46'214.5
2019-Sep-11 22:00N 41°21' E 009°45'815.2
2019-Sep-11 21:30N 41°13' E 009°44'35 1.8
2019-Sep-11 02:12N 41°49' E 009°48'416.1
2019-Sep-11 01:58N 41°52' E 009°48'5915.8
2019-Sep-10 22:14N 42°51' E 009°57'415.9
2019-Sep-10 22:00N 42°54' E 009°58'816.1
2019-Sep-10 21:31N 43°02' E 010°01'815.7
2019-Sep-10 21:00N 43°10' E 010°04'815.3
2019-Sep-10 20:30N 43°17' E 010°06'815.4
2019-Sep-10 20:00N 43°25' E 010°09'713.8
2019-Sep-10 19:30N 43°31' E 010°12'4 8.9
2019-Sep-10 19:00N 43°33' E 010°17'2 4.2
2019-Sep-10 18:28N 43°35' E 010°19'0 0.0
2019-Sep-10 17:58N 43°35' E 010°19'0 0.0
2019-Sep-10 17:28N 43°35' E 010°19'0 0.0
2019-Sep-10 16:58N 43°35' E 010°19'0 0.0
2019-Sep-10 16:28N 43°35' E 010°19'0 0.0
2019-Sep-10 15:58N 43°35' E 010°19'0 0.0
2019-Sep-10 15:28N 43°35' E 010°19'0 0.0
2019-Sep-10 14:58N 43°35' E 010°19'0 0.0
2019-Sep-10 14:28N 43°35' E 010°19'0 0.0
2019-Sep-10 13:58N 43°35' E 010°19'0 0.0
2019-Sep-10 13:28N 43°35' E 010°19'0 0.0
2019-Sep-10 12:58N 43°35' E 010°19'0 0.0
2019-Sep-10 12:28N 43°35' E 010°19'0 0.0
2019-Sep-10 11:58N 43°35' E 010°19'0 0.0
2019-Sep-10 11:28N 43°35' E 010°19'0 0.0
2019-Sep-10 10:58N 43°35' E 010°19'0 0.0
2019-Sep-10 10:28N 43°35' E 010°19'0 0.0
2019-Sep-10 09:58N 43°35' E 010°19'0 0.0
2019-Sep-10 09:28N 43°35' E 010°19'0 0.0
2019-Sep-10 08:58N 43°35' E 010°19'0 0.0
2019-Sep-10 08:28N 43°35' E 010°19'0 0.0
2019-Sep-10 07:58N 43°35' E 010°19'0 0.0
2019-Sep-10 07:28N 43°35' E 010°19'0 0.0
2019-Sep-10 06:58N 43°35' E 010°19'0 0.0
2019-Sep-10 06:28N 43°35' E 010°19'1 2.0
2019-Sep-10 06:00N 43°34' E 010°18'3 6.0
2019-Sep-10 05:30N 43°32' E 010°16'613.1
2019-Sep-10 05:00N 43°26' E 010°12'714.9
2019-Sep-10 04:30N 43°18' E 010°09'714.9
2019-Sep-10 04:00N 43°11' E 010°07'814.7
2019-Sep-10 03:29N 43°04' E 010°05'6814.3
2019-Sep-09 22:43N 41°56' E 009°50'413.9
2019-Sep-09 22:24N 41°52' E 009°49'170 5.8
2019-Sep-08 17:15N 39°03' E 009°20'313.3
2019-Sep-08 17:00N 39°05' E 009°16'712.9
2019-Sep-08 16:30N 39°09' E 009°09'4 0.6
2019-Sep-08 09:47N 39°12' E 009°06'1 3.5
2019-Sep-08 09:31N 39°12' E 009°06'5 9.9
2019-Sep-08 09:00N 39°08' E 009°11'713.6
2019-Sep-08 08:30N 39°05' E 009°19'24213.8
2019-Sep-07 15:01N 40°28' E 014°14'114.4
2019-Sep-07 14:57N 40°29' E 014°15'614.3
2019-Sep-07 14:31N 40°31' E 014°23'814.3
2019-Sep-07 13:59N 40°33' E 014°32'7 0.8
2019-Sep-07 04:34N 40°37' E 014°41'112.1
2019-Sep-07 04:27N 40°36' E 014°39'715.1
2019-Sep-07 04:00N 40°33' E 014°31'714.8
2019-Sep-07 03:30N 40°29' E 014°23'814.8
2019-Sep-07 03:00N 40°26' E 014°14'  

Dump ship's entire track history